sensor_id;sensor_type;location;lat;lon;timestamp;temperature;humidity
64012;DHT22;50211;52.768;12.124;2023-06-26T00:00:24;19.00;99.90
64012;DHT22;50211;52.768;12.124;2023-06-26T00:02:49;19.00;99.90
64012;DHT22;50211;52.768;12.124;2023-06-26T00:05:15;18.90;99.90
64012;DHT22;50211;52.768;12.124;2023-06-26T00:07:41;18.90;99.90
64012;DHT22;50211;52.768;12.124;2023-06-26T00:10:06;18.90;99.90
64012;DHT22;50211;52.768;12.124;2023-06-26T00:12:32;18.90;99.90
64012;DHT22;50211;52.768;12.124;2023-06-26T00:14:58;18.80;99.90
64012;DHT22;50211;52.768;12.124;2023-06-26T00:17:24;18.80;99.90
64012;DHT22;50211;52.768;12.124;2023-06-26T00:19:50;18.80;99.90
64012;DHT22;50211;52.768;12.124;2023-06-26T00:22:16;18.80;99.90
64012;DHT22;50211;52.768;12.124;2023-06-26T00:24:41;18.80;99.90
64012;DHT22;50211;52.768;12.124;2023-06-26T00:27:07;18.80;99.90
64012;DHT22;50211;52.768;12.124;2023-06-26T00:29:33;18.80;99.90
64012;DHT22;50211;52.768;12.124;2023-06-26T00:31:58;18.70;99.90
64012;DHT22;50211;52.768;12.124;2023-06-26T00:34:24;18.70;99.90
64012;DHT22;50211;52.768;12.124;2023-06-26T00:36:49;18.60;99.90
64012;DHT22;50211;52.768;12.124;2023-06-26T00:39:15;18.60;99.90
64012;DHT22;50211;52.768;12.124;2023-06-26T00:41:40;18.60;99.90
64012;DHT22;50211;52.768;12.124;2023-06-26T00:44:06;18.60;99.90
64012;DHT22;50211;52.768;12.124;2023-06-26T00:46:32;18.60;99.90
64012;DHT22;50211;52.768;12.124;2023-06-26T00:48:59;18.50;99.90
64012;DHT22;50211;52.768;12.124;2023-06-26T00:51:27;18.50;99.90
64012;DHT22;50211;52.768;12.124;2023-06-26T00:53:53;18.50;99.90
64012;DHT22;50211;52.768;12.124;2023-06-26T00:56:20;18.40;99.90
64012;DHT22;50211;52.768;12.124;2023-06-26T00:58:46;18.40;99.90
64012;DHT22;50211;52.768;12.124;2023-06-26T01:01:12;18.40;99.90
64012;DHT22;50211;52.768;12.124;2023-06-26T01:03:43;18.40;99.90
64012;DHT22;50211;52.768;12.124;2023-06-26T01:06:11;18.40;99.90
64012;DHT22;50211;52.768;12.124;2023-06-26T01:08:39;18.40;99.90
64012;DHT22;50211;52.768;12.124;2023-06-26T01:11:06;18.50;99.90
64012;DHT22;50211;52.768;12.124;2023-06-26T01:13:32;18.40;99.90
64012;DHT22;50211;52.768;12.124;2023-06-26T01:15:58;18.40;99.90
64012;DHT22;50211;52.768;12.124;2023-06-26T01:18:26;18.40;99.90
64012;DHT22;50211;52.768;12.124;2023-06-26T01:20:52;18.30;99.90
64012;DHT22;50211;52.768;12.124;2023-06-26T01:26:16;18.30;99.90
64012;DHT22;50211;52.768;12.124;2023-06-26T01:28:43;18.30;99.90
64012;DHT22;50211;52.768;12.124;2023-06-26T01:31:11;18.30;99.90
64012;DHT22;50211;52.768;12.124;2023-06-26T01:33:37;18.30;99.90
64012;DHT22;50211;52.768;12.124;2023-06-26T01:36:03;18.30;99.90
64012;DHT22;50211;52.768;12.124;2023-06-26T01:38:29;18.30;99.90
64012;DHT22;50211;52.768;12.124;2023-06-26T01:40:55;18.30;99.90
64012;DHT22;50211;52.768;12.124;2023-06-26T01:46:55;18.20;99.90
64012;DHT22;50211;52.768;12.124;2023-06-26T01:52:02;18.20;99.90
64012;DHT22;50211;52.768;12.124;2023-06-26T01:54:30;18.30;99.90
64012;DHT22;50211;52.768;12.124;2023-06-26T01:56:57;18.20;99.90
64012;DHT22;50211;52.768;12.124;2023-06-26T01:59:24;18.20;99.90
64012;DHT22;50211;52.768;12.124;2023-06-26T02:01:52;18.30;99.90
64012;DHT22;50211;52.768;12.124;2023-06-26T02:04:18;18.20;99.90
64012;DHT22;50211;52.768;12.124;2023-06-26T02:06:43;18.20;99.90
64012;DHT22;50211;52.768;12.124;2023-06-26T02:09:09;18.20;99.90
64012;DHT22;50211;52.768;12.124;2023-06-26T02:11:34;18.20;99.90
64012;DHT22;50211;52.768;12.124;2023-06-26T02:14:00;18.10;99.90
64012;DHT22;50211;52.768;12.124;2023-06-26T02:16:25;18.10;99.90
64012;DHT22;50211;52.768;12.124;2023-06-26T02:18:51;18.10;99.90
64012;DHT22;50211;52.768;12.124;2023-06-26T02:21:16;18.10;99.90
64012;DHT22;50211;52.768;12.124;2023-06-26T02:23:42;18.00;99.90
64012;DHT22;50211;52.768;12.124;2023-06-26T02:26:07;18.00;99.90
64012;DHT22;50211;52.768;12.124;2023-06-26T02:28:33;17.90;99.90
64012;DHT22;50211;52.768;12.124;2023-06-26T02:30:59;17.80;99.90
64012;DHT22;50211;52.768;12.124;2023-06-26T02:33:26;17.80;99.90
64012;DHT22;50211;52.768;12.124;2023-06-26T02:35:51;17.90;99.90
64012;DHT22;50211;52.768;12.124;2023-06-26T02:38:17;17.80;99.90
64012;DHT22;50211;52.768;12.124;2023-06-26T02:40:42;17.80;99.90
64012;DHT22;50211;52.768;12.124;2023-06-26T02:43:08;17.80;99.90
64012;DHT22;50211;52.768;12.124;2023-06-26T02:45:33;17.80;99.90
64012;DHT22;50211;52.768;12.124;2023-06-26T02:47:59;17.80;99.90
64012;DHT22;50211;52.768;12.124;2023-06-26T02:50:24;17.70;99.90
64012;DHT22;50211;52.768;12.124;2023-06-26T02:52:49;17.70;99.90
64012;DHT22;50211;52.768;12.124;2023-06-26T02:55:18;17.70;99.90
64012;DHT22;50211;52.768;12.124;2023-06-26T02:57:44;17.70;99.90
64012;DHT22;50211;52.768;12.124;2023-06-26T03:00:10;17.70;99.90
64012;DHT22;50211;52.768;12.124;2023-06-26T03:02:36;17.60;99.90
64012;DHT22;50211;52.768;12.124;2023-06-26T03:05:02;17.60;99.90
64012;DHT22;50211;52.768;12.124;2023-06-26T03:07:28;17.60;99.90
64012;DHT22;50211;52.768;12.124;2023-06-26T03:09:53;17.60;99.90
64012;DHT22;50211;52.768;12.124;2023-06-26T03:12:19;17.60;99.90
64012;DHT22;50211;52.768;12.124;2023-06-26T03:14:44;17.60;99.90
64012;DHT22;50211;52.768;12.124;2023-06-26T03:17:10;17.60;99.90
64012;DHT22;50211;52.768;12.124;2023-06-26T03:19:35;17.60;99.90
64012;DHT22;50211;52.768;12.124;2023-06-26T03:22:01;17.60;99.90
64012;DHT22;50211;52.768;12.124;2023-06-26T03:24:26;17.60;99.90
64012;DHT22;50211;52.768;12.124;2023-06-26T03:26:52;17.60;99.90
64012;DHT22;50211;52.768;12.124;2023-06-26T03:29:17;17.60;99.90
64012;DHT22;50211;52.768;12.124;2023-06-26T03:31:43;17.60;99.90
64012;DHT22;50211;52.768;12.124;2023-06-26T03:34:08;17.60;99.90
64012;DHT22;50211;52.768;12.124;2023-06-26T03:36:34;17.60;99.90
64012;DHT22;50211;52.768;12.124;2023-06-26T03:39:00;17.60;99.90
64012;DHT22;50211;52.768;12.124;2023-06-26T03:41:26;17.60;99.90
64012;DHT22;50211;52.768;12.124;2023-06-26T03:43:51;17.70;99.90
64012;DHT22;50211;52.768;12.124;2023-06-26T03:46:17;17.70;99.90
64012;DHT22;50211;52.768;12.124;2023-06-26T03:48:42;17.70;99.90
64012;DHT22;50211;52.768;12.124;2023-06-26T03:51:08;17.70;99.90
64012;DHT22;50211;52.768;12.124;2023-06-26T03:53:34;17.70;99.90
64012;DHT22;50211;52.768;12.124;2023-06-26T03:55:59;17.70;99.90
64012;DHT22;50211;52.768;12.124;2023-06-26T03:58:25;17.80;99.90
64012;DHT22;50211;52.768;12.124;2023-06-26T04:00:51;17.80;99.90
64012;DHT22;50211;52.768;12.124;2023-06-26T04:03:16;17.80;99.90
64012;DHT22;50211;52.768;12.124;2023-06-26T04:05:42;17.80;99.90
64012;DHT22;50211;52.768;12.124;2023-06-26T04:08:08;17.90;99.90
64012;DHT22;50211;52.768;12.124;2023-06-26T04:10:33;17.90;99.90
64012;DHT22;50211;52.768;12.124;2023-06-26T04:12:59;18.00;99.90
64012;DHT22;50211;52.768;12.124;2023-06-26T04:15:25;18.00;99.90
64012;DHT22;50211;52.768;12.124;2023-06-26T04:17:50;18.10;99.90
64012;DHT22;50211;52.768;12.124;2023-06-26T04:20:16;18.10;99.90
64012;DHT22;50211;52.768;12.124;2023-06-26T04:22:41;18.10;99.90
64012;DHT22;50211;52.768;12.124;2023-06-26T04:25:08;18.10;99.90
64012;DHT22;50211;52.768;12.124;2023-06-26T04:27:33;18.20;99.90
64012;DHT22;50211;52.768;12.124;2023-06-26T04:29:59;18.30;99.90
64012;DHT22;50211;52.768;12.124;2023-06-26T04:32:24;18.30;99.90
64012;DHT22;50211;52.768;12.124;2023-06-26T04:34:50;18.40;99.90
64012;DHT22;50211;52.768;12.124;2023-06-26T04:37:15;18.40;99.90
64012;DHT22;50211;52.768;12.124;2023-06-26T04:39:42;18.40;99.90
64012;DHT22;50211;52.768;12.124;2023-06-26T04:42:08;18.50;99.90
64012;DHT22;50211;52.768;12.124;2023-06-26T04:44:34;18.60;99.90
64012;DHT22;50211;52.768;12.124;2023-06-26T04:47:00;18.70;99.90
64012;DHT22;50211;52.768;12.124;2023-06-26T04:49:25;18.70;99.90
64012;DHT22;50211;52.768;12.124;2023-06-26T04:51:53;18.80;99.90
64012;DHT22;50211;52.768;12.124;2023-06-26T04:54:18;18.90;99.90
64012;DHT22;50211;52.768;12.124;2023-06-26T04:56:44;18.90;99.90
64012;DHT22;50211;52.768;12.124;2023-06-26T04:59:12;19.00;99.90
64012;DHT22;50211;52.768;12.124;2023-06-26T05:01:38;19.10;99.90
64012;DHT22;50211;52.768;12.124;2023-06-26T05:04:05;19.20;99.90
64012;DHT22;50211;52.768;12.124;2023-06-26T05:06:30;19.20;99.90
64012;DHT22;50211;52.768;12.124;2023-06-26T05:08:56;19.30;99.90
64012;DHT22;50211;52.768;12.124;2023-06-26T05:11:21;19.30;99.90
64012;DHT22;50211;52.768;12.124;2023-06-26T05:13:47;19.40;99.90
64012;DHT22;50211;52.768;12.124;2023-06-26T05:16:12;19.50;99.90
64012;DHT22;50211;52.768;12.124;2023-06-26T05:18:38;19.60;99.90
64012;DHT22;50211;52.768;12.124;2023-06-26T05:21:04;19.70;99.90
64012;DHT22;50211;52.768;12.124;2023-06-26T05:23:33;19.80;99.90
64012;DHT22;50211;52.768;12.124;2023-06-26T05:26:03;19.90;99.90
64012;DHT22;50211;52.768;12.124;2023-06-26T05:28:30;20.10;99.90
64012;DHT22;50211;52.768;12.124;2023-06-26T05:30:58;20.20;99.90
64012;DHT22;50211;52.768;12.124;2023-06-26T05:33:25;20.30;99.90
64012;DHT22;50211;52.768;12.124;2023-06-26T05:35:52;20.40;99.90
64012;DHT22;50211;52.768;12.124;2023-06-26T05:38:18;20.50;99.90
64012;DHT22;50211;52.768;12.124;2023-06-26T05:40:44;20.70;99.90
64012;DHT22;50211;52.768;12.124;2023-06-26T05:43:10;20.80;99.90
64012;DHT22;50211;52.768;12.124;2023-06-26T05:45:35;20.90;99.90
64012;DHT22;50211;52.768;12.124;2023-06-26T05:48:01;21.00;99.90
64012;DHT22;50211;52.768;12.124;2023-06-26T05:50:27;21.10;99.90
64012;DHT22;50211;52.768;12.124;2023-06-26T05:52:53;21.20;99.90
64012;DHT22;50211;52.768;12.124;2023-06-26T05:55:19;21.40;99.90
64012;DHT22;50211;52.768;12.124;2023-06-26T05:57:46;21.50;99.90
64012;DHT22;50211;52.768;12.124;2023-06-26T06:00:12;21.60;99.90
64012;DHT22;50211;52.768;12.124;2023-06-26T06:02:39;21.70;99.90
64012;DHT22;50211;52.768;12.124;2023-06-26T06:05:05;21.80;99.90
64012;DHT22;50211;52.768;12.124;2023-06-26T06:07:32;21.90;99.90
64012;DHT22;50211;52.768;12.124;2023-06-26T06:09:58;22.00;99.90
64012;DHT22;50211;52.768;12.124;2023-06-26T06:12:23;22.10;99.90
64012;DHT22;50211;52.768;12.124;2023-06-26T06:14:49;22.20;99.90
64012;DHT22;50211;52.768;12.124;2023-06-26T06:17:14;22.40;99.90
64012;DHT22;50211;52.768;12.124;2023-06-26T06:19:40;22.60;99.90
64012;DHT22;50211;52.768;12.124;2023-06-26T06:22:05;22.70;99.90
64012;DHT22;50211;52.768;12.124;2023-06-26T06:24:31;23.00;99.90
64012;DHT22;50211;52.768;12.124;2023-06-26T06:26:56;23.10;99.90
64012;DHT22;50211;52.768;12.124;2023-06-26T06:29:22;23.30;99.90
64012;DHT22;50211;52.768;12.124;2023-06-26T06:31:48;23.50;99.90
64012;DHT22;50211;52.768;12.124;2023-06-26T06:34:13;23.60;99.90
64012;DHT22;50211;52.768;12.124;2023-06-26T06:36:39;23.80;99.90
64012;DHT22;50211;52.768;12.124;2023-06-26T06:39:05;23.90;99.90
64012;DHT22;50211;52.768;12.124;2023-06-26T06:41:30;24.10;99.90
64012;DHT22;50211;52.768;12.124;2023-06-26T06:43:56;24.20;99.90
64012;DHT22;50211;52.768;12.124;2023-06-26T06:46:21;24.30;99.90
64012;DHT22;50211;52.768;12.124;2023-06-26T06:48:47;24.50;99.90
64012;DHT22;50211;52.768;12.124;2023-06-26T06:51:13;24.60;99.90
64012;DHT22;50211;52.768;12.124;2023-06-26T06:53:38;24.80;99.90
64012;DHT22;50211;52.768;12.124;2023-06-26T06:56:04;25.00;99.90
64012;DHT22;50211;52.768;12.124;2023-06-26T06:58:29;25.00;99.90
64012;DHT22;50211;52.768;12.124;2023-06-26T07:00:59;25.20;99.90
64012;DHT22;50211;52.768;12.124;2023-06-26T07:03:24;25.30;99.90
64012;DHT22;50211;52.768;12.124;2023-06-26T07:05:50;25.50;99.90
64012;DHT22;50211;52.768;12.124;2023-06-26T07:08:15;25.60;99.90
64012;DHT22;50211;52.768;12.124;2023-06-26T07:10:41;25.70;99.90
64012;DHT22;50211;52.768;12.124;2023-06-26T07:13:06;25.80;99.90
64012;DHT22;50211;52.768;12.124;2023-06-26T07:15:32;26.00;99.90
64012;DHT22;50211;52.768;12.124;2023-06-26T07:17:57;26.10;99.90
64012;DHT22;50211;52.768;12.124;2023-06-26T07:20:23;26.30;99.90
64012;DHT22;50211;52.768;12.124;2023-06-26T07:22:49;26.30;99.90
64012;DHT22;50211;52.768;12.124;2023-06-26T07:25:15;26.30;99.90
64012;DHT22;50211;52.768;12.124;2023-06-26T07:27:41;26.40;99.90
64012;DHT22;50211;52.768;12.124;2023-06-26T07:30:07;26.50;99.90
64012;DHT22;50211;52.768;12.124;2023-06-26T07:32:36;26.60;99.90
64012;DHT22;50211;52.768;12.124;2023-06-26T07:35:01;26.80;99.90
64012;DHT22;50211;52.768;12.124;2023-06-26T07:37:27;26.90;99.90
64012;DHT22;50211;52.768;12.124;2023-06-26T07:39:52;27.00;99.90
64012;DHT22;50211;52.768;12.124;2023-06-26T07:42:18;27.00;99.90
64012;DHT22;50211;52.768;12.124;2023-06-26T07:44:44;27.10;99.90
64012;DHT22;50211;52.768;12.124;2023-06-26T07:47:10;27.30;99.90
64012;DHT22;50211;52.768;12.124;2023-06-26T07:49:35;27.50;99.90
64012;DHT22;50211;52.768;12.124;2023-06-26T07:52:01;27.50;99.90
64012;DHT22;50211;52.768;12.124;2023-06-26T07:54:27;27.50;99.90
64012;DHT22;50211;52.768;12.124;2023-06-26T07:57:03;27.60;99.90
64012;DHT22;50211;52.768;12.124;2023-06-26T07:59:30;27.80;99.90
64012;DHT22;50211;52.768;12.124;2023-06-26T08:01:56;27.90;99.90
64012;DHT22;50211;52.768;12.124;2023-06-26T08:04:24;28.10;99.90
64012;DHT22;50211;52.768;12.124;2023-06-26T08:06:55;28.40;99.90
64012;DHT22;50211;52.768;12.124;2023-06-26T08:09:22;28.70;99.90
64012;DHT22;50211;52.768;12.124;2023-06-26T08:11:48;28.90;99.90
64012;DHT22;50211;52.768;12.124;2023-06-26T08:14:13;29.00;99.90
64012;DHT22;50211;52.768;12.124;2023-06-26T08:16:40;28.80;99.90
64012;DHT22;50211;52.768;12.124;2023-06-26T08:19:06;28.90;99.90
64012;DHT22;50211;52.768;12.124;2023-06-26T08:21:31;28.90;99.90
64012;DHT22;50211;52.768;12.124;2023-06-26T08:23:57;29.10;99.90
64012;DHT22;50211;52.768;12.124;2023-06-26T08:26:22;29.30;99.90
64012;DHT22;50211;52.768;12.124;2023-06-26T08:28:48;29.60;99.90
64012;DHT22;50211;52.768;12.124;2023-06-26T08:31:13;29.90;99.90
64012;DHT22;50211;52.768;12.124;2023-06-26T08:33:39;29.90;99.90
64012;DHT22;50211;52.768;12.124;2023-06-26T08:36:04;29.80;99.90
64012;DHT22;50211;52.768;12.124;2023-06-26T08:38:30;29.80;99.90
64012;DHT22;50211;52.768;12.124;2023-06-26T08:40:55;29.90;99.90
64012;DHT22;50211;52.768;12.124;2023-06-26T08:43:21;30.00;99.90
64012;DHT22;50211;52.768;12.124;2023-06-26T08:45:47;30.20;99.90
64012;DHT22;50211;52.768;12.124;2023-06-26T08:48:17;30.30;99.90
64012;DHT22;50211;52.768;12.124;2023-06-26T08:50:44;30.40;99.90
64012;DHT22;50211;52.768;12.124;2023-06-26T08:53:43;30.50;99.90
64012;DHT22;50211;52.768;12.124;2023-06-26T08:56:15;30.70;99.90
64012;DHT22;50211;52.768;12.124;2023-06-26T08:58:42;31.10;99.90
64012;DHT22;50211;52.768;12.124;2023-06-26T09:01:08;31.20;99.90
64012;DHT22;50211;52.768;12.124;2023-06-26T09:03:34;31.30;99.90
64012;DHT22;50211;52.768;12.124;2023-06-26T09:06:00;31.20;99.90
64012;DHT22;50211;52.768;12.124;2023-06-26T09:08:26;31.30;99.90
64012;DHT22;50211;52.768;12.124;2023-06-26T09:10:52;31.50;99.90
64012;DHT22;50211;52.768;12.124;2023-06-26T09:13:18;31.90;99.90
64012;DHT22;50211;52.768;12.124;2023-06-26T09:15:44;31.70;99.90
64012;DHT22;50211;52.768;12.124;2023-06-26T09:18:10;31.50;99.90
64012;DHT22;50211;52.768;12.124;2023-06-26T09:20:36;31.40;99.90
64012;DHT22;50211;52.768;12.124;2023-06-26T09:23:02;31.20;99.90
64012;DHT22;50211;52.768;12.124;2023-06-26T09:25:28;31.20;99.90
64012;DHT22;50211;52.768;12.124;2023-06-26T09:27:55;31.20;99.90
64012;DHT22;50211;52.768;12.124;2023-06-26T09:30:21;31.10;99.90
64012;DHT22;50211;52.768;12.124;2023-06-26T09:32:47;30.90;99.90
64012;DHT22;50211;52.768;12.124;2023-06-26T09:35:13;30.90;99.90
64012;DHT22;50211;52.768;12.124;2023-06-26T09:37:38;31.40;99.90
64012;DHT22;50211;52.768;12.124;2023-06-26T09:40:05;31.80;99.90
64012;DHT22;50211;52.768;12.124;2023-06-26T09:42:31;32.10;99.90
64012;DHT22;50211;52.768;12.124;2023-06-26T09:44:56;32.30;99.90
64012;DHT22;50211;52.768;12.124;2023-06-26T09:47:22;32.20;99.90
64012;DHT22;50211;52.768;12.124;2023-06-26T09:49:48;32.20;99.90
64012;DHT22;50211;52.768;12.124;2023-06-26T09:52:14;32.00;99.90
64012;DHT22;50211;52.768;12.124;2023-06-26T09:54:42;32.10;99.90
64012;DHT22;50211;52.768;12.124;2023-06-26T09:57:11;32.10;99.90
64012;DHT22;50211;52.768;12.124;2023-06-26T09:59:37;32.30;99.90
64012;DHT22;50211;52.768;12.124;2023-06-26T10:02:03;32.60;99.90
64012;DHT22;50211;52.768;12.124;2023-06-26T10:04:28;32.50;99.90
64012;DHT22;50211;52.768;12.124;2023-06-26T10:06:58;32.50;99.90
64012;DHT22;50211;52.768;12.124;2023-06-26T10:09:25;32.70;99.90
64012;DHT22;50211;52.768;12.124;2023-06-26T10:11:56;32.50;99.90
64012;DHT22;50211;52.768;12.124;2023-06-26T10:14:31;32.60;99.90
64012;DHT22;50211;52.768;12.124;2023-06-26T10:17:00;32.80;99.90
64012;DHT22;50211;52.768;12.124;2023-06-26T10:19:27;33.00;99.90
64012;DHT22;50211;52.768;12.124;2023-06-26T10:21:54;33.20;99.90
64012;DHT22;50211;52.768;12.124;2023-06-26T10:24:21;33.30;99.90
64012;DHT22;50211;52.768;12.124;2023-06-26T10:26:50;33.40;99.90
64012;DHT22;50211;52.768;12.124;2023-06-26T10:29:17;33.00;99.90
64012;DHT22;50211;52.768;12.124;2023-06-26T10:31:50;33.20;99.90
64012;DHT22;50211;52.768;12.124;2023-06-26T10:34:16;32.90;99.90
64012;DHT22;50211;52.768;12.124;2023-06-26T10:36:42;33.40;99.90
64012;DHT22;50211;52.768;12.124;2023-06-26T10:39:08;33.30;99.60
64012;DHT22;50211;52.768;12.124;2023-06-26T10:41:40;33.40;99.20
64012;DHT22;50211;52.768;12.124;2023-06-26T10:44:12;33.80;99.20
64012;DHT22;50211;52.768;12.124;2023-06-26T10:46:55;33.90;99.90
64012;DHT22;50211;52.768;12.124;2023-06-26T10:49:25;34.10;99.80
64012;DHT22;50211;52.768;12.124;2023-06-26T10:51:51;34.50;99.50
64012;DHT22;50211;52.768;12.124;2023-06-26T10:54:18;34.70;98.80
64012;DHT22;50211;52.768;12.124;2023-06-26T10:56:49;34.60;96.90
64012;DHT22;50211;52.768;12.124;2023-06-26T10:59:17;34.30;96.50
64012;DHT22;50211;52.768;12.124;2023-06-26T11:01:44;34.30;96.20
64012;DHT22;50211;52.768;12.124;2023-06-26T11:04:12;34.50;98.40
64012;DHT22;50211;52.768;12.124;2023-06-26T11:06:39;34.60;96.70
64012;DHT22;50211;52.768;12.124;2023-06-26T11:14:16;34.10;98.00
64012;DHT22;50211;52.768;12.124;2023-06-26T11:16:42;34.20;97.20
64012;DHT22;50211;52.768;12.124;2023-06-26T11:19:09;34.20;97.20
64012;DHT22;50211;52.768;12.124;2023-06-26T11:21:37;34.00;97.50
64012;DHT22;50211;52.768;12.124;2023-06-26T11:24:04;33.70;98.60
64012;DHT22;50211;52.768;12.124;2023-06-26T11:26:30;33.80;97.10
64012;DHT22;50211;52.768;12.124;2023-06-26T11:28:56;34.20;96.60
64012;DHT22;50211;52.768;12.124;2023-06-26T11:31:29;34.50;97.80
64012;DHT22;50211;52.768;12.124;2023-06-26T11:33:59;34.50;96.30
64012;DHT22;50211;52.768;12.124;2023-06-26T11:36:26;34.50;96.70
64012;DHT22;50211;52.768;12.124;2023-06-26T11:41:21;34.10;95.60
64012;DHT22;50211;52.768;12.124;2023-06-26T11:43:46;34.20;96.80
64012;DHT22;50211;52.768;12.124;2023-06-26T11:46:12;34.50;96.10
64012;DHT22;50211;52.768;12.124;2023-06-26T11:48:38;34.50;96.00
64012;DHT22;50211;52.768;12.124;2023-06-26T11:51:05;34.80;96.30
64012;DHT22;50211;52.768;12.124;2023-06-26T11:53:30;34.70;97.50
64012;DHT22;50211;52.768;12.124;2023-06-26T11:55:56;34.90;94.80
64012;DHT22;50211;52.768;12.124;2023-06-26T11:58:22;35.50;94.50
64012;DHT22;50211;52.768;12.124;2023-06-26T12:00:48;35.60;94.50
64012;DHT22;50211;52.768;12.124;2023-06-26T12:03:14;35.80;92.40
64012;DHT22;50211;52.768;12.124;2023-06-26T12:05:39;35.30;94.00
64012;DHT22;50211;52.768;12.124;2023-06-26T12:08:06;35.50;95.30
64012;DHT22;50211;52.768;12.124;2023-06-26T12:10:33;35.10;93.50
64012;DHT22;50211;52.768;12.124;2023-06-26T12:12:58;35.00;92.40
64012;DHT22;50211;52.768;12.124;2023-06-26T12:15:27;35.30;94.30
64012;DHT22;50211;52.768;12.124;2023-06-26T12:17:53;34.80;93.90
64012;DHT22;50211;52.768;12.124;2023-06-26T12:20:22;33.90;94.20
64012;DHT22;50211;52.768;12.124;2023-06-26T12:22:48;33.30;94.80
64012;DHT22;50211;52.768;12.124;2023-06-26T12:25:14;32.70;95.40
64012;DHT22;50211;52.768;12.124;2023-06-26T12:27:40;32.20;95.40
64012;DHT22;50211;52.768;12.124;2023-06-26T12:30:06;31.90;96.30
64012;DHT22;50211;52.768;12.124;2023-06-26T12:32:31;31.60;97.60
64012;DHT22;50211;52.768;12.124;2023-06-26T12:34:57;31.40;99.10
64012;DHT22;50211;52.768;12.124;2023-06-26T12:37:24;31.10;99.30
64012;DHT22;50211;52.768;12.124;2023-06-26T12:39:57;30.90;99.40
64012;DHT22;50211;52.768;12.124;2023-06-26T12:42:27;30.80;99.90
64012;DHT22;50211;52.768;12.124;2023-06-26T12:44:53;30.60;99.80
64012;DHT22;50211;52.768;12.124;2023-06-26T12:47:28;30.60;99.90
64012;DHT22;50211;52.768;12.124;2023-06-26T12:49:54;30.00;99.90
64012;DHT22;50211;52.768;12.124;2023-06-26T12:52:20;29.20;99.90
64012;DHT22;50211;52.768;12.124;2023-06-26T12:54:47;28.60;99.90
64012;DHT22;50211;52.768;12.124;2023-06-26T12:57:16;28.20;99.90
64012;DHT22;50211;52.768;12.124;2023-06-26T12:59:42;27.70;99.90
64012;DHT22;50211;52.768;12.124;2023-06-26T13:02:08;27.20;99.90
64012;DHT22;50211;52.768;12.124;2023-06-26T13:04:34;26.70;99.90
64012;DHT22;50211;52.768;12.124;2023-06-26T13:07:01;26.20;99.90
64012;DHT22;50211;52.768;12.124;2023-06-26T13:09:26;26.60;99.90
64012;DHT22;50211;52.768;12.124;2023-06-26T13:11:53;27.20;99.90
64012;DHT22;50211;52.768;12.124;2023-06-26T13:14:19;27.20;99.90
64012;DHT22;50211;52.768;12.124;2023-06-26T13:16:44;27.20;99.90
64012;DHT22;50211;52.768;12.124;2023-06-26T13:19:10;27.30;99.90
64012;DHT22;50211;52.768;12.124;2023-06-26T13:21:36;27.20;99.90
64012;DHT22;50211;52.768;12.124;2023-06-26T13:24:03;27.00;99.90
64012;DHT22;50211;52.768;12.124;2023-06-26T13:26:29;26.60;99.90
64012;DHT22;50211;52.768;12.124;2023-06-26T13:28:55;26.40;99.90
64012;DHT22;50211;52.768;12.124;2023-06-26T13:31:21;25.90;99.90
64012;DHT22;50211;52.768;12.124;2023-06-26T13:33:47;25.70;99.90
64012;DHT22;50211;52.768;12.124;2023-06-26T13:36:17;25.40;99.90
64012;DHT22;50211;52.768;12.124;2023-06-26T13:38:43;25.10;99.90
64012;DHT22;50211;52.768;12.124;2023-06-26T13:41:09;25.10;99.90
64012;DHT22;50211;52.768;12.124;2023-06-26T13:43:34;25.70;99.90
64012;DHT22;50211;52.768;12.124;2023-06-26T13:46:01;26.50;99.90
64012;DHT22;50211;52.768;12.124;2023-06-26T13:48:28;26.40;99.90
64012;DHT22;50211;52.768;12.124;2023-06-26T13:50:54;25.80;99.90
64012;DHT22;50211;52.768;12.124;2023-06-26T13:53:19;25.70;99.90
64012;DHT22;50211;52.768;12.124;2023-06-26T13:55:45;25.40;99.90
64012;DHT22;50211;52.768;12.124;2023-06-26T13:58:11;25.90;99.90
64012;DHT22;50211;52.768;12.124;2023-06-26T14:00:37;26.40;99.90
64012;DHT22;50211;52.768;12.124;2023-06-26T14:03:03;26.50;99.90
64012;DHT22;50211;52.768;12.124;2023-06-26T14:05:30;26.20;99.90
64012;DHT22;50211;52.768;12.124;2023-06-26T14:07:55;25.90;99.90
64012;DHT22;50211;52.768;12.124;2023-06-26T14:10:21;25.50;99.90
64012;DHT22;50211;52.768;12.124;2023-06-26T14:12:47;25.00;99.90
64012;DHT22;50211;52.768;12.124;2023-06-26T14:15:12;24.90;99.90
64012;DHT22;50211;52.768;12.124;2023-06-26T14:17:38;24.70;99.90
64012;DHT22;50211;52.768;12.124;2023-06-26T14:20:06;24.70;99.90
64012;DHT22;50211;52.768;12.124;2023-06-26T14:22:34;24.50;99.90
64012;DHT22;50211;52.768;12.124;2023-06-26T14:24:59;24.70;99.90
64012;DHT22;50211;52.768;12.124;2023-06-26T14:27:25;25.00;99.90
64012;DHT22;50211;52.768;12.124;2023-06-26T14:29:50;25.40;99.90
64012;DHT22;50211;52.768;12.124;2023-06-26T14:32:16;25.70;99.90
64012;DHT22;50211;52.768;12.124;2023-06-26T14:34:41;25.80;99.90
64012;DHT22;50211;52.768;12.124;2023-06-26T14:37:07;26.00;99.90
64012;DHT22;50211;52.768;12.124;2023-06-26T14:39:32;25.80;99.90
64012;DHT22;50211;52.768;12.124;2023-06-26T14:41:57;25.60;99.90
64012;DHT22;50211;52.768;12.124;2023-06-26T14:44:23;25.40;99.90
64012;DHT22;50211;52.768;12.124;2023-06-26T14:46:48;25.20;99.90
64012;DHT22;50211;52.768;12.124;2023-06-26T14:49:14;25.10;99.90
64012;DHT22;50211;52.768;12.124;2023-06-26T14:51:39;24.90;99.90
64012;DHT22;50211;52.768;12.124;2023-06-26T14:54:05;25.00;99.90
64012;DHT22;50211;52.768;12.124;2023-06-26T14:56:31;25.20;99.90
64012;DHT22;50211;52.768;12.124;2023-06-26T14:58:57;25.70;99.90
64012;DHT22;50211;52.768;12.124;2023-06-26T15:01:22;25.80;99.90
64012;DHT22;50211;52.768;12.124;2023-06-26T15:03:48;26.00;99.90
64012;DHT22;50211;52.768;12.124;2023-06-26T15:06:14;25.80;99.90
64012;DHT22;50211;52.768;12.124;2023-06-26T15:08:40;25.60;99.90
64012;DHT22;50211;52.768;12.124;2023-06-26T15:11:05;25.90;99.90
64012;DHT22;50211;52.768;12.124;2023-06-26T15:13:31;25.80;99.90
64012;DHT22;50211;52.768;12.124;2023-06-26T15:15:56;25.50;99.90
64012;DHT22;50211;52.768;12.124;2023-06-26T15:18:22;25.30;99.90
64012;DHT22;50211;52.768;12.124;2023-06-26T15:20:47;24.90;99.90
64012;DHT22;50211;52.768;12.124;2023-06-26T15:23:13;24.60;99.90
64012;DHT22;50211;52.768;12.124;2023-06-26T15:25:38;24.20;99.90